Time;durP1;ratioP1;P1;durP2;ratioP2;P2;SDS_P1;SDS_P2;PMS_P1;PMS_P2;Temp;Humidity;BMP_temperature;BMP_pressure;BME280_temperature;BME280_humidity;BME280_pressure;Samples;Min_cycle;Max_cycle;Signal;HPM_P1;HPM_P2
2021/09/07 00:01:35;;;;;;;1.80;1.02;;;16.60;71.70;;;;;;5024927;27;95513;-70
2021/09/07 00:04:07;;;;;;;2.85;1.15;;;16.70;71.60;;;;;;5028499;28;96645;-73
2021/09/07 00:06:37;;;;;;;1.00;1.00;;;16.70;71.70;;;;;;5027936;28;95916;-75
2021/09/07 00:09:10;;;;;;;2.03;1.30;;;16.80;71.90;;;;;;5029418;28;95893;-75
2021/09/07 00:11:41;;;;;;;2.15;1.05;;;16.80;71.90;;;;;;5031171;28;96433;-74
2021/09/07 00:14:11;;;;;;;1.15;1.05;;;16.90;71.80;;;;;;5027845;27;95354;-74
2021/09/07 00:16:44;;;;;;;1.20;0.90;;;16.90;71.80;;;;;;5024707;27;95739;-73
2021/09/07 00:19:15;;;;;;;1.38;0.88;;;17.00;71.80;;;;;;5017966;27;95902;-71
2021/09/07 00:21:53;;;;;;;1.67;1.13;;;17.10;71.80;;;;;;5028755;28;95861;-73
2021/09/07 00:24:23;;;;;;;2.03;1.25;;;17.10;71.60;;;;;;5007926;28;95772;-73
2021/09/07 00:26:54;;;;;;;2.28;1.02;;;17.10;71.40;;;;;;5007945;28;95880;-73
2021/09/07 00:29:26;;;;;;;1.55;1.27;;;17.10;71.20;;;;;;5027918;28;97074;-73
2021/09/07 00:31:57;;;;;;;2.00;1.20;;;17.20;71.20;;;;;;5025322;27;96033;-74
2021/09/07 00:34:30;;;;;;;1.55;1.02;;;17.30;71.10;;;;;;5032358;28;95327;-73
2021/09/07 00:37:03;;;;;;;1.60;1.13;;;17.30;71.00;;;;;;5031103;28;95660;-73
2021/09/07 00:39:36;;;;;;;2.38;1.50;;;17.30;70.90;;;;;;5006559;28;97011;-74
2021/09/07 00:42:07;;;;;;;2.65;0.93;;;17.30;70.70;;;;;;5033157;28;95715;-76
2021/09/07 00:44:37;;;;;;;;;;;17.40;70.70;;;;;;5033309;28;95409;-73
2021/09/07 00:47:08;;;;;;;1.23;1.00;;;17.40;70.50;;;;;;5032710;27;95826;-74
2021/09/07 00:49:41;;;;;;;1.90;1.10;;;17.40;70.40;;;;;;5008428;28;95821;-73
2021/09/07 00:52:14;;;;;;;0.95;0.70;;;17.50;70.40;;;;;;5034617;28;96317;-75
2021/09/07 00:54:47;;;;;;;1.40;1.00;;;17.50;70.30;;;;;;5033749;28;95266;-72
2021/09/07 00:57:19;;;;;;;0.98;0.90;;;17.50;70.20;;;;;;5034053;28;95962;-75
2021/09/07 00:59:53;;;;;;;2.42;0.90;;;17.50;70.10;;;;;;5032538;28;95920;-74
2021/09/07 01:02:24;;;;;;;1.33;0.90;;;17.50;70.00;;;;;;5007664;28;95955;-73
2021/09/07 01:04:56;;;;;;;1.08;0.70;;;17.60;70.00;;;;;;5035524;28;95241;-74
2021/09/07 01:07:27;;;;;;;1.38;0.88;;;17.60;70.00;;;;;;5033703;28;95320;-71
2021/09/07 01:09:59;;;;;;;0.90;0.63;;;17.60;69.80;;;;;;5030826;28;95945;-72
2021/09/07 01:12:31;;;;;;;2.42;0.70;;;17.60;69.90;;;;;;5031029;28;95793;-71
2021/09/07 01:15:04;;;;;;;1.98;0.98;;;17.60;69.70;;;;;;5032436;27;95930;-75
2021/09/07 01:17:35;;;;;;;2.60;1.27;;;17.70;69.80;;;;;;5020187;27;95980;-77
2021/09/07 01:20:07;;;;;;;4.53;1.10;;;17.70;69.70;;;;;;5026323;27;95955;-74
2021/09/07 01:22:37;;;;;;;3.40;0.93;;;17.70;69.70;;;;;;5014082;28;96207;-74
2021/09/07 01:25:08;;;;;;;3.60;0.70;;;17.80;69.60;;;;;;5003387;28;96604;-75
2021/09/07 01:27:40;;;;;;;1.95;1.10;;;17.80;69.50;;;;;;5031108;28;95730;-74
2021/09/07 01:30:14;;;;;;;1.92;1.20;;;17.80;69.30;;;;;;5029458;28;96141;-72
2021/09/07 01:32:46;;;;;;;1.20;1.02;;;17.80;69.30;;;;;;5031565;27;95635;-72
2021/09/07 01:35:17;;;;;;;0.77;0.68;;;17.90;69.90;;;;;;5032794;28;96051;-74
2021/09/07 01:37:46;;;;;;;1.88;0.98;;;17.90;69.20;;;;;;5031270;28;95271;-73
2021/09/07 01:40:19;;;;;;;2.30;0.90;;;17.90;69.10;;;;;;5030109;28;95838;-73
2021/09/07 01:42:50;;;;;;;3.42;0.63;;;17.90;69.00;;;;;;5030818;28;95919;-73
2021/09/07 01:45:21;;;;;;;1.00;0.75;;;17.90;69.20;;;;;;5026161;27;95213;-76
2021/09/07 01:47:54;;;;;;;0.93;0.52;;;17.90;69.10;;;;;;5031142;28;95724;-74
2021/09/07 01:50:25;;;;;;;1.60;0.80;;;18.00;69.10;;;;;;5032391;28;96343;-73
2021/09/07 01:52:56;;;;;;;1.70;0.60;;;18.00;69.10;;;;;;5032895;28;96055;-77
2021/09/07 01:55:28;;;;;;;3.42;0.88;;;18.00;69.10;;;;;;5034332;28;95753;-72
2021/09/07 01:57:59;;;;;;;1.33;0.70;;;18.00;68.90;;;;;;5011666;28;95883;-74
2021/09/07 02:00:31;;;;;;;1.10;0.60;;;18.00;68.90;;;;;;5027220;27;96675;-74
2021/09/07 02:03:03;;;;;;;1.40;0.90;;;18.10;68.90;;;;;;5027889;28;102380;-76
2021/09/07 02:05:35;;;;;;;0.75;0.50;;;18.10;68.80;;;;;;5030367;28;95866;-74
2021/09/07 02:08:06;;;;;;;2.00;0.80;;;18.10;69.10;;;;;;5026802;28;95863;-74
2021/09/07 02:10:38;;;;;;;0.98;0.70;;;18.20;69.30;;;;;;5005273;28;98728;-74
2021/09/07 02:13:09;;;;;;;1.02;0.63;;;18.30;69.30;;;;;;5029954;28;96152;-75
2021/09/07 02:15:39;;;;;;;0.60;0.60;;;18.40;69.10;;;;;;5004909;27;96452;-75
2021/09/07 02:18:10;;;;;;;;;;;18.50;69.10;;;;;;5013304;27;95426;-75
2021/09/07 02:20:43;;;;;;;2.08;0.57;;;18.70;68.90;;;;;;4994318;28;97366;-74
2021/09/07 02:23:13;;;;;;;0.47;0.45;;;18.70;68.70;;;;;;5029476;28;95904;-75
2021/09/07 02:25:44;;;;;;;0.90;0.63;;;18.90;68.60;;;;;;5030934;28;95946;-74
2021/09/07 02:28:15;;;;;;;0.98;0.55;;;19.00;68.50;;;;;;5029487;28;95532;-75
2021/09/07 02:30:46;;;;;;;1.58;0.70;;;19.00;68.30;;;;;;5021154;27;96013;-75
2021/09/07 02:33:19;;;;;;;1.17;0.63;;;19.20;68.20;;;;;;5027395;28;96342;-74
2021/09/07 02:35:53;;;;;;;1.15;0.80;;;19.30;67.90;;;;;;5028020;28;98697;-76
2021/09/07 02:38:24;;;;;;;0.80;0.68;;;19.40;67.70;;;;;;5029185;28;96069;-74
2021/09/07 02:41:00;;;;;;;0.68;0.60;;;19.40;67.70;;;;;;5006391;28;96302;-74
2021/09/07 02:43:31;;;;;;;2.47;1.08;;;19.50;67.60;;;;;;5026995;28;95959;-73
2021/09/07 02:46:05;;;;;;;2.33;1.20;;;19.60;67.50;;;;;;5026189;27;96032;-74
2021/09/07 02:48:36;;;;;;;1.13;1.02;;;19.70;67.40;;;;;;5030162;28;95320;-76
2021/09/07 02:51:08;;;;;;;0.80;0.70;;;19.70;67.20;;;;;;5027522;28;97198;-74
2021/09/07 02:53:42;;;;;;;1.05;0.80;;;19.80;67.10;;;;;;5006384;28;95804;-74
2021/09/07 02:56:15;;;;;;;1.25;0.85;;;19.90;67.70;;;;;;5030327;28;95366;-74
2021/09/07 02:58:50;;;;;;;0.80;0.70;;;20.00;66.90;;;;;;5028252;28;95743;-74
2021/09/07 03:01:20;;;;;;;2.50;0.80;;;20.10;66.70;;;;;;4999874;28;95989;-73
2021/09/07 03:03:51;;;;;;;0.82;0.82;;;20.10;66.60;;;;;;5029258;28;96455;-74
2021/09/07 03:06:23;;;;;;;3.40;1.02;;;20.20;66.50;;;;;;5028023;28;95841;-71
2021/09/07 03:08:56;;;;;;;1.10;0.90;;;20.30;66.40;;;;;;4998592;28;96227;-73
2021/09/07 03:11:28;;;;;;;1.23;0.80;;;20.30;66.30;;;;;;5026766;28;96109;-74
2021/09/07 03:13:59;;;;;;;;;;;20.40;66.20;;;;;;5027560;28;96185;-73
2021/09/07 03:16:33;;;;;;;1.38;0.90;;;20.40;66.20;;;;;;5020343;27;98859;-74
2021/09/07 03:19:04;;;;;;;1.73;0.80;;;20.50;66.20;;;;;;5014441;27;96607;-75
2021/09/07 03:21:34;;;;;;;1.67;0.70;;;20.50;63.80;;;;;;5027616;28;96543;-74
2021/09/07 03:24:06;;;;;;;1.45;1.00;;;20.30;62.40;;;;;;5028667;28;95746;-75
2021/09/07 03:26:37;;;;;;;1.50;1.10;;;20.10;62.50;;;;;;5027743;28;96426;-76
2021/09/07 03:29:10;;;;;;;1.27;0.80;;;20.00;62.90;;;;;;5025787;28;97135;-77
2021/09/07 03:31:42;;;;;;;1.33;0.82;;;19.90;63.40;;;;;;4997816;28;96639;-76
2021/09/07 03:34:12;;;;;;;1.30;0.73;;;19.70;63.70;;;;;;4998094;28;95937;-75
2021/09/07 03:36:44;;;;;;;2.35;1.13;;;19.60;64.10;;;;;;5005388;28;95398;-74
2021/09/07 03:39:15;;;;;;;1.40;1.07;;;19.50;64.40;;;;;;5025550;28;95748;-75
2021/09/07 03:41:47;;;;;;;1.02;0.95;;;19.40;64.60;;;;;;5025358;28;96484;-75
2021/09/07 03:44:18;;;;;;;1.42;0.80;;;19.30;64.90;;;;;;5025402;28;96432;-74
2021/09/07 03:46:48;;;;;;;2.40;1.10;;;19.30;65.10;;;;;;5006074;28;95866;-71
2021/09/07 03:49:21;;;;;;;2.30;0.90;;;19.20;65.40;;;;;;5006207;28;96044;-77
2021/09/07 03:51:55;;;;;;;2.85;0.90;;;19.10;65.50;;;;;;5033954;28;96080;-72
2021/09/07 03:54:26;;;;;;;0.95;0.90;;;19.00;65.60;;;;;;5033449;28;95762;-75
2021/09/07 03:56:58;;;;;;;1.77;1.02;;;19.00;65.80;;;;;;5033669;28;95374;-75
2021/09/07 03:59:30;;;;;;;3.35;1.08;;;18.90;66.00;;;;;;5032074;28;96123;-74
2021/09/07 04:02:02;;;;;;;3.08;0.88;;;18.80;66.30;;;;;;5030053;27;95941;-73
2021/09/07 04:04:38;;;;;;;1.88;0.90;;;18.90;66.80;;;;;;5032122;28;95649;-73
2021/09/07 04:07:10;;;;;;;0.88;0.70;;;18.90;67.00;;;;;;5033079;28;95750;-75
2021/09/07 04:09:41;;;;;;;1.65;0.70;;;19.10;67.20;;;;;;5010639;28;95906;-73
2021/09/07 04:12:13;;;;;;;1.25;0.63;;;19.20;67.20;;;;;;5034318;28;95904;-73
2021/09/07 04:14:43;;;;;;;0.57;0.57;;;19.20;67.30;;;;;;5031845;28;96300;-74
2021/09/07 04:17:14;;;;;;;2.10;0.90;;;19.20;67.40;;;;;;5023488;27;97325;-76
2021/09/07 04:19:46;;;;;;;3.45;1.00;;;19.30;67.50;;;;;;5023513;27;95902;-76
2021/09/07 04:22:17;;;;;;;1.38;0.85;;;19.40;67.00;;;;;;5035203;28;95345;-74
2021/09/07 04:24:47;;;;;;;3.72;1.17;;;19.30;65.90;;;;;;5034432;28;95849;-74
2021/09/07 04:27:19;;;;;;;0.93;0.85;;;19.30;66.20;;;;;;5035537;28;95817;-74
2021/09/07 04:29:50;;;;;;;1.20;1.00;;;19.20;66.50;;;;;;5037652;28;96081;-76
2021/09/07 04:32:22;;;;;;;1.80;0.93;;;19.20;66.70;;;;;;5027534;27;97352;-74
2021/09/07 04:34:55;;;;;;;1.58;1.00;;;19.20;66.70;;;;;;5012849;28;96494;-74
2021/09/07 04:37:25;;;;;;;1.77;1.00;;;19.10;66.80;;;;;;5035927;28;95283;-75
2021/09/07 04:39:55;;;;;;;1.30;0.77;;;19.10;66.90;;;;;;5037609;28;95864;-76
2021/09/07 04:42:26;;;;;;;1.20;0.93;;;19.10;67.00;;;;;;5014903;28;97995;-76
2021/09/07 04:44:58;;;;;;;1.13;1.00;;;19.10;66.90;;;;;;5036953;28;95630;-75
2021/09/07 04:47:28;;;;;;;;;;;19.10;66.90;;;;;;5031266;27;97136;-77
2021/09/07 04:49:59;;;;;;;2.67;1.20;;;19.10;67.00;;;;;;5040297;28;95632;-77
2021/09/07 04:52:30;;;;;;;3.25;1.00;;;19.10;67.00;;;;;;5010971;28;98370;-74
2021/09/07 04:55:02;;;;;;;3.88;1.35;;;19.10;67.20;;;;;;5018578;28;96002;-74
2021/09/07 04:57:34;;;;;;;8.45;1.65;;;19.10;67.40;;;;;;5015343;28;95711;-75
2021/09/07 05:00:05;;;;;;;3.22;1.40;;;19.10;68.00;;;;;;5029317;27;95330;-76
2021/09/07 05:02:37;;;;;;;2.33;1.40;;;19.10;67.50;;;;;;5010043;28;96217;-76
2021/09/07 05:05:09;;;;;;;2.55;1.10;;;19.10;67.50;;;;;;5031581;27;95897;-73
2021/09/07 05:07:43;;;;;;;2.60;1.48;;;19.10;67.50;;;;;;5035757;28;95804;-73
2021/09/07 05:10:14;;;;;;;1.98;1.10;;;19.10;67.60;;;;;;5010995;28;96355;-73
2021/09/07 05:12:45;;;;;;;2.53;1.15;;;19.20;67.60;;;;;;5034604;27;97487;-75
2021/09/07 05:15:16;;;;;;;2.58;1.27;;;19.20;67.60;;;;;;5030215;27;95247;-72
2021/09/07 05:17:48;;;;;;;1.52;1.05;;;19.20;67.60;;;;;;5021503;28;95738;-75
2021/09/07 05:20:18;;;;;;;2.35;1.30;;;19.20;67.70;;;;;;5005164;28;95840;-73
2021/09/07 05:22:49;;;;;;;2.75;1.23;;;19.10;67.70;;;;;;5032898;27;96488;-72
2021/09/07 05:25:20;;;;;;;3.70;1.40;;;19.10;67.80;;;;;;5008313;28;96647;-71
2021/09/07 05:27:52;;;;;;;0.90;0.90;;;19.10;68.00;;;;;;5015074;28;95296;-74
2021/09/07 05:30:22;;;;;;;4.13;1.40;;;19.10;68.10;;;;;;5030420;27;95815;-74
2021/09/07 05:32:52;;;;;;;3.15;1.38;;;19.10;68.10;;;;;;5033649;28;99606;-74
2021/09/07 05:35:24;;;;;;;3.25;1.10;;;19.10;68.20;;;;;;5035105;28;95971;-76
2021/09/07 05:37:54;;;;;;;2.90;1.15;;;19.10;68.30;;;;;;5033227;28;95774;-75
2021/09/07 05:40:24;;;;;;;1.85;1.45;;;19.10;68.30;;;;;;5013347;28;96138;-75
2021/09/07 05:42:54;;;;;;;1.25;1.00;;;19.20;68.40;;;;;;5032174;28;96748;-74
2021/09/07 05:45:24;;;;;;;1.95;1.40;;;19.20;68.50;;;;;;5024024;27;96790;-74
2021/09/07 05:47:56;;;;;;;1.85;1.27;;;19.20;68.70;;;;;;5032676;28;96403;-75
2021/09/07 05:50:32;;;;;;;3.75;1.98;;;19.20;68.60;;;;;;5011962;28;96367;-73
2021/09/07 05:53:08;;;;;;;4.10;1.20;;;19.20;68.60;;;;;;5008038;28;98501;-75
2021/09/07 05:55:40;;;;;;;3.50;1.40;;;19.20;68.50;;;;;;5032556;28;95718;-75
2021/09/07 05:58:11;;;;;;;3.88;1.33;;;19.20;68.50;;;;;;5013807;28;95944;-74
2021/09/07 06:00:46;;;;;;;3.10;1.17;;;19.20;68.50;;;;;;5009082;28;95936;-76
2021/09/07 06:03:18;;;;;;;1.35;1.02;;;19.20;68.50;;;;;;5033740;28;95929;-74
2021/09/07 06:05:52;;;;;;;1.63;1.08;;;19.20;68.40;;;;;;5010691;28;97049;-76
2021/09/07 06:08:25;;;;;;;2.72;1.05;;;19.20;68.40;;;;;;5032044;28;95817;-70
2021/09/07 06:10:56;;;;;;;2.97;0.98;;;19.20;68.30;;;;;;5024160;28;95400;-75
2021/09/07 06:13:28;;;;;;;2.13;1.27;;;19.20;68.40;;;;;;5032111;27;95918;-73
2021/09/07 06:16:00;;;;;;;3.08;0.80;;;19.20;68.30;;;;;;5026164;27;96276;-72
2021/09/07 06:18:32;;;;;;;1.60;0.90;;;19.20;68.30;;;;;;4992226;27;96777;-74
2021/09/07 06:21:04;;;;;;;1.50;0.88;;;19.20;68.30;;;;;;5009416;28;95356;-74
2021/09/07 06:23:34;;;;;;;1.23;0.80;;;19.20;68.30;;;;;;5032899;28;96561;-73
2021/09/07 06:26:06;;;;;;;2.60;1.13;;;19.20;68.30;;;;;;5031737;28;96161;-74
2021/09/07 06:28:38;;;;;;;1.40;1.02;;;19.10;68.30;;;;;;5032089;28;96054;-74
2021/09/07 06:31:10;;;;;;;1.98;0.93;;;19.10;68.30;;;;;;5029407;27;95423;-73
2021/09/07 06:33:43;;;;;;;1.60;0.85;;;19.20;68.40;;;;;;5030126;28;95809;-72
2021/09/07 06:36:18;;;;;;;1.02;0.77;;;19.10;68.40;;;;;;5029423;28;96078;-76
2021/09/07 06:38:49;;;;;;;1.52;1.00;;;19.10;68.40;;;;;;5028562;28;95679;-75
2021/09/07 06:41:19;;;;;;;1.97;0.90;;;19.20;68.60;;;;;;5030607;28;95731;-75
2021/09/07 06:43:50;;;;;;;2.15;1.00;;;19.20;68.50;;;;;;5026666;28;95824;-75
2021/09/07 06:46:25;;;;;;;2.38;0.98;;;19.20;68.40;;;;;;5024704;27;95413;-76
2021/09/07 06:49:00;;;;;;;5.95;1.05;;;19.20;68.50;;;;;;5030461;28;95683;-75
2021/09/07 06:51:32;;;;;;;2.80;1.23;;;19.30;68.50;;;;;;5034198;28;95910;-73
2021/09/07 06:54:09;;;;;;;1.70;0.95;;;19.20;69.00;;;;;;5035265;28;96392;-74
2021/09/07 06:56:43;;;;;;;2.08;0.95;;;19.20;68.30;;;;;;5034602;28;95334;-74
2021/09/07 06:59:16;;;;;;;1.58;0.90;;;19.30;68.50;;;;;;5032707;28;95894;-73
2021/09/07 07:01:50;;;;;;;1.58;0.80;;;19.30;68.50;;;;;;5027566;27;95830;-76
2021/09/07 07:04:24;;;;;;;1.45;0.90;;;19.30;68.50;;;;;;5009439;28;95817;-73
2021/09/07 07:06:59;;;;;;;2.08;0.98;;;19.30;68.50;;;;;;5013774;28;96776;-76
2021/09/07 07:09:33;;;;;;;1.38;1.05;;;19.30;68.50;;;;;;5032670;28;96257;-76
2021/09/07 07:12:04;;;;;;;2.58;0.95;;;19.20;68.40;;;;;;5033781;28;95666;-76
2021/09/07 07:14:36;;;;;;;4.25;1.20;;;19.20;68.60;;;;;;5032786;28;95889;-78
2021/09/07 07:17:07;;;;;;;1.17;0.70;;;19.30;68.80;;;;;;5018318;27;95788;-77
2021/09/07 07:19:37;;;;;;;1.70;0.73;;;19.30;68.80;;;;;;5016600;28;98950;-77
2021/09/07 07:22:07;;;;;;;2.35;1.00;;;19.30;68.70;;;;;;5033370;28;95670;-75
2021/09/07 07:24:37;;;;;;;2.00;0.95;;;19.30;68.90;;;;;;5029701;28;96082;-76
2021/09/07 07:27:07;;;;;;;3.65;1.20;;;19.40;69.00;;;;;;5030073;28;96684;-75
2021/09/07 07:29:37;;;;;;;1.83;1.00;;;19.40;68.90;;;;;;5030285;28;95871;-75
2021/09/07 07:32:07;;;;;;;1.92;0.93;;;19.40;68.70;;;;;;5005654;28;95690;-75
2021/09/07 07:34:39;;;;;;;3.03;1.15;;;19.40;68.50;;;;;;5007277;28;98401;-74
2021/09/07 07:37:10;;;;;;;1.88;1.63;;;19.40;68.60;;;;;;5031080;28;98315;-73
2021/09/07 07:39:42;;;;;;;2.20;1.10;;;19.40;68.50;;;;;;5010298;28;96019;-75
2021/09/07 07:42:12;;;;;;;1.45;0.90;;;19.40;68.60;;;;;;5031222;28;95417;-74
2021/09/07 07:44:43;;;;;;;2.15;1.33;;;19.40;68.70;;;;;;5029413;28;95986;-74
2021/09/07 07:47:15;;;;;;;1.67;0.90;;;19.40;68.50;;;;;;4988795;28;96802;-75
2021/09/07 07:49:47;;;;;;;2.15;1.45;;;19.40;68.50;;;;;;5007283;28;96173;-75
2021/09/07 07:52:19;;;;;;;2.33;1.05;;;19.40;68.70;;;;;;5008700;28;95256;-76
2021/09/07 07:54:51;;;;;;;2.17;1.38;;;19.40;68.70;;;;;;5008852;28;96367;-74
2021/09/07 07:57:23;;;;;;;1.77;0.90;;;19.40;68.70;;;;;;5008343;28;96672;-72
2021/09/07 07:59:56;;;;;;;2.42;1.10;;;19.40;68.50;;;;;;5005618;28;95844;-72
2021/09/07 08:02:29;;;;;;;3.40;0.93;;;19.40;68.50;;;;;;4986319;28;96390;-73
2021/09/07 08:05:02;;;;;;;1.75;1.35;;;19.40;68.30;;;;;;5009100;28;95981;-74
2021/09/07 08:07:35;;;;;;;2.78;1.08;;;19.40;68.50;;;;;;5006478;28;95563;-74
2021/09/07 08:10:07;;;;;;;2.60;1.27;;;19.40;68.50;;;;;;5005074;28;96418;-73
2021/09/07 08:12:39;;;;;;;2.08;1.48;;;19.50;68.30;;;;;;5008265;28;95506;-73
2021/09/07 08:15:09;;;;;;;1.75;1.20;;;19.40;68.20;;;;;;5008850;28;96004;-74
2021/09/07 08:17:40;;;;;;;1.85;1.00;;;19.40;68.10;;;;;;4983190;28;99861;-73
2021/09/07 08:20:12;;;;;;;1.45;1.20;;;19.40;68.10;;;;;;4984688;28;96021;-73
2021/09/07 08:22:42;;;;;;;3.65;1.60;;;19.40;68.10;;;;;;5009703;28;95673;-71
2021/09/07 08:25:12;;;;;;;2.20;1.10;;;19.40;68.10;;;;;;5007212;28;96530;-74
2021/09/07 08:27:43;;;;;;;2.47;1.27;;;19.40;68.20;;;;;;5008526;28;95877;-73
2021/09/07 08:30:15;;;;;;;2.90;1.17;;;19.40;68.30;;;;;;4990128;28;96149;-72
2021/09/07 08:32:46;;;;;;;1.20;0.90;;;19.30;68.20;;;;;;5007997;28;97465;-72
2021/09/07 08:35:17;;;;;;;1.38;1.05;;;19.30;68.10;;;;;;5011840;28;96319;-74
2021/09/07 08:37:47;;;;;;;3.25;1.00;;;19.40;68.10;;;;;;5014613;28;95628;-72
2021/09/07 08:40:17;;;;;;;1.85;1.10;;;19.30;68.00;;;;;;5011913;28;95863;-72
2021/09/07 08:42:47;;;;;;;2.35;1.10;;;19.30;68.10;;;;;;5016620;28;95306;-72
2021/09/07 08:45:17;;;;;;;2.13;1.02;;;19.30;68.00;;;;;;5008225;28;95764;-71
2021/09/07 08:47:49;;;;;;;3.03;1.35;;;19.30;68.10;;;;;;5001723;28;95865;-75
2021/09/07 08:50:19;;;;;;;;;;;19.30;68.10;;;;;;5004797;28;96101;-71
2021/09/07 08:52:58;;;;;;;2.25;1.10;;;19.30;68.00;;;;;;5012008;28;95379;-72
2021/09/07 08:55:31;;;;;;;1.73;1.38;;;19.30;68.10;;;;;;5031497;28;95945;-73
2021/09/07 08:58:02;;;;;;;3.75;1.27;;;19.30;68.10;;;;;;5029615;28;95862;-71
2021/09/07 09:00:34;;;;;;;3.42;1.52;;;19.30;68.10;;;;;;5000081;27;95923;-73
2021/09/07 09:03:12;;;;;;;1.38;0.93;;;19.30;68.20;;;;;;5024165;28;98041;-72
2021/09/07 09:05:53;;;;;;;1.77;1.30;;;19.30;68.20;;;;;;5000524;28;98244;-74
2021/09/07 09:08:25;;;;;;;1.55;1.13;;;19.30;68.20;;;;;;5027299;28;95839;-71
2021/09/07 09:11:03;;;;;;;;;;;19.30;68.10;;;;;;5027710;28;95706;-71
2021/09/07 09:13:47;;;;;;;1.98;1.20;;;19.20;68.10;;;;;;5004511;28;95790;-71
2021/09/07 09:16:17;;;;;;;1.65;0.95;;;19.20;68.10;;;;;;4992299;28;95921;-71
2021/09/07 09:18:48;;;;;;;2.35;1.80;;;19.20;68.10;;;;;;4992241;28;99584;-71
2021/09/07 09:21:24;;;;;;;1.30;1.17;;;19.30;68.20;;;;;;4987510;28;95709;-70
2021/09/07 09:24:32;;;;;;;2.67;1.52;;;19.20;68.20;;;;;;4987345;28;95788;-73
2021/09/07 09:27:04;;;;;;;2.53;1.35;;;19.20;68.50;;;;;;4929612;28;96083;-71
2021/09/07 09:29:38;;;;;;;3.33;1.52;;;19.20;68.50;;;;;;4944355;28;95934;-70
2021/09/07 09:32:12;;;;;;;2.38;1.25;;;19.20;68.40;;;;;;4964923;28;98027;-72
2021/09/07 09:34:44;;;;;;;2.47;1.40;;;19.20;68.50;;;;;;4976342;28;96212;-71
2021/09/07 09:37:16;;;;;;;1.80;1.10;;;19.20;68.40;;;;;;4964759;28;98027;-72
2021/09/07 09:39:55;;;;;;;2.95;1.50;;;19.20;68.80;;;;;;4962884;28;96053;-72
2021/09/07 09:42:33;;;;;;;2.22;1.30;;;19.20;68.80;;;;;;4971929;28;95698;-72
2021/09/07 09:45:08;;;;;;;1.65;1.30;;;19.30;68.90;;;;;;4971777;28;96018;-75
2021/09/07 09:47:56;;;;;;;3.20;1.23;;;19.20;68.80;;;;;;4977658;28;95900;-72
2021/09/07 09:50:28;;;;;;;2.60;1.60;;;19.20;68.80;;;;;;4975292;28;96346;-73
2021/09/07 09:53:01;;;;;;;3.42;1.55;;;19.30;68.70;;;;;;4962633;28;96724;-73
2021/09/07 09:55:32;;;;;;;1.80;1.40;;;19.20;68.60;;;;;;4963313;28;96285;-72
2021/09/07 09:58:03;;;;;;;1.63;1.20;;;19.20;68.60;;;;;;4977643;28;96362;-72
2021/09/07 10:00:34;;;;;;;1.42;1.17;;;19.20;68.60;;;;;;4980760;28;96579;-74
2021/09/07 10:03:09;;;;;;;1.90;1.25;;;19.20;68.50;;;;;;5029568;28;95601;-74
2021/09/07 10:05:43;;;;;;;2.85;1.27;;;19.20;68.50;;;;;;5009782;28;95692;-73
2021/09/07 10:08:15;;;;;;;3.28;1.30;;;19.20;68.60;;;;;;5032864;28;95915;-71
2021/09/07 10:11:07;;;;;;;4.57;1.83;;;19.10;68.50;;;;;;5028355;28;96738;-71
2021/09/07 10:13:40;;;;;;;;;;;19.10;69.30;;;;;;5028656;28;95709;-71
2021/09/07 10:16:18;;;;;;;2.20;1.70;;;19.10;68.80;;;;;;5019176;27;99094;-72
2021/09/07 10:18:58;;;;;;;5.35;2.08;;;19.00;68.90;;;;;;4976299;27;98255;-71
2021/09/07 10:24:54;;;;;;;4.82;2.03;;;19.00;69.00;;;;;;5026754;28;95914;-72
2021/09/07 10:28:05;;;;;;;3.22;1.70;;;18.90;68.90;;;;;;5020192;28;96515;-72
2021/09/07 10:30:56;;;;;;;3.00;2.20;;;18.90;69.00;;;;;;4993695;27;98180;-72
2021/09/07 10:33:32;;;;;;;3.35;2.08;;;18.80;69.00;;;;;;4984346;28;95856;-71
2021/09/07 10:36:28;;;;;;;4.95;2.58;;;18.80;69.10;;;;;;4985498;28;95960;-72
2021/09/07 10:39:03;;;;;;;3.72;2.38;;;18.80;69.20;;;;;;4988413;28;96508;-72
2021/09/07 10:41:33;;;;;;;4.65;2.65;;;18.70;69.30;;;;;;4987247;28;95955;-73
2021/09/07 10:44:08;;;;;;;3.90;2.08;;;18.70;69.20;;;;;;5013821;28;96081;-72
2021/09/07 10:46:45;;;;;;;3.38;2.38;;;18.70;69.30;;;;;;5007731;28;95988;-73
2021/09/07 10:49:37;;;;;;;4.90;2.53;;;18.70;69.30;;;;;;4992718;28;95521;-72
2021/09/07 10:52:13;;;;;;;4.22;2.97;;;18.70;69.30;;;;;;4990708;28;97314;-74
2021/09/07 10:55:09;;;;;;;2.70;2.25;;;18.60;69.20;;;;;;5016789;28;95869;-72
2021/09/07 10:57:49;;;;;;;4.25;2.20;;;18.60;69.30;;;;;;4990115;28;95836;-73
2021/09/07 11:00:20;;;;;;;3.80;2.40;;;18.60;69.30;;;;;;5008567;28;96089;-74
2021/09/07 11:03:07;;;;;;;2.97;2.30;;;18.60;69.40;;;;;;5000501;28;96261;-72
2021/09/07 11:05:41;;;;;;;4.18;2.60;;;18.50;69.30;;;;;;4998369;28;95350;-73
2021/09/07 11:08:16;;;;;;;4.72;2.60;;;18.50;69.40;;;;;;5021459;28;96248;-73
2021/09/07 11:10:53;;;;;;;3.53;2.03;;;18.50;69.50;;;;;;5018619;28;95956;-72
2021/09/07 11:13:25;;;;;;;4.45;2.60;;;18.50;69.50;;;;;;5016546;28;96092;-72
2021/09/07 11:16:01;;;;;;;3.10;1.92;;;18.40;69.50;;;;;;4987431;28;97395;-73
2021/09/07 11:18:33;;;;;;;3.30;2.00;;;18.40;69.60;;;;;;4986081;28;95799;-72
2021/09/07 11:21:09;;;;;;;3.42;2.30;;;18.30;69.60;;;;;;4997391;28;95816;-72
2021/09/07 11:23:41;;;;;;;3.65;2.45;;;18.30;69.60;;;;;;4980431;28;95916;-71
2021/09/07 11:26:16;;;;;;;4.50;2.38;;;18.30;69.60;;;;;;4997187;28;96535;-72
2021/09/07 11:28:48;;;;;;;3.40;2.40;;;18.30;69.60;;;;;;4995627;28;95995;-70
2021/09/07 11:31:18;;;;;;;5.32;2.60;;;18.30;69.80;;;;;;4984666;28;95685;-72
2021/09/07 11:33:49;;;;;;;4.05;2.25;;;18.20;69.70;;;;;;5019679;28;97329;-72
2021/09/07 11:36:20;;;;;;;7.13;2.33;;;18.30;69.70;;;;;;4996774;28;96154;-72
2021/09/07 11:38:53;;;;;;;4.88;2.65;;;18.20;69.70;;;;;;5019260;28;95715;-73
2021/09/07 11:41:25;;;;;;;3.80;2.10;;;18.20;69.60;;;;;;5000058;28;95883;-71
2021/09/07 11:43:58;;;;;;;3.50;2.13;;;18.20;69.70;;;;;;5018973;28;96455;-72
2021/09/07 11:46:37;;;;;;;3.92;2.08;;;18.10;69.60;;;;;;4992930;28;96709;-72
2021/09/07 11:49:12;;;;;;;3.55;2.13;;;18.10;69.80;;;;;;5017887;28;95782;-73
2021/09/07 11:51:47;;;;;;;3.30;2.22;;;18.10;69.80;;;;;;5022333;28;95839;-74
2021/09/07 11:54:19;;;;;;;3.20;2.10;;;18.10;69.80;;;;;;5021196;28;96670;-73
2021/09/07 11:56:59;;;;;;;3.58;2.67;;;18.10;69.90;;;;;;5019162;28;95994;-74
2021/09/07 11:59:30;;;;;;;3.25;1.90;;;18.10;69.80;;;;;;5018551;28;96949;-72
2021/09/07 12:02:10;;;;;;;3.58;2.42;;;18.10;69.80;;;;;;4995203;28;95997;-71
2021/09/07 12:04:57;;;;;;;4.28;2.53;;;18.00;69.80;;;;;;5017794;28;96377;-72
2021/09/07 12:07:30;;;;;;;4.22;2.50;;;18.00;69.90;;;;;;4985813;28;97195;-72
2021/09/07 12:10:08;;;;;;;3.55;2.42;;;18.00;69.90;;;;;;5022931;27;95348;-71
2021/09/07 12:12:39;;;;;;;6.43;2.30;;;17.90;69.90;;;;;;5006192;28;95664;-72
2021/09/07 12:15:18;;;;;;;3.65;2.42;;;18.00;70.00;;;;;;5023930;28;96352;-71
2021/09/07 12:17:48;;;;;;;3.72;2.80;;;17.90;69.90;;;;;;5019163;28;100253;-71
2021/09/07 12:20:21;;;;;;;4.82;2.72;;;17.90;70.00;;;;;;5017787;28;96781;-71
2021/09/07 12:22:50;;;;;;;;;;;17.80;69.90;;;;;;5025765;28;95755;-74
2021/09/07 12:25:20;;;;;;;3.25;2.10;;;17.90;70.10;;;;;;5004521;28;96328;-73
2021/09/07 12:28:04;;;;;;;5.35;2.67;;;17.90;70.20;;;;;;5025286;28;95223;-74
2021/09/07 12:30:39;;;;;;;3.47;2.33;;;17.90;70.10;;;;;;5005389;28;95676;-73
2021/09/07 12:33:20;;;;;;;3.65;2.92;;;17.90;70.00;;;;;;5023097;28;95556;-73
2021/09/07 12:35:59;;;;;;;3.78;2.65;;;17.90;70.00;;;;;;5005502;28;96088;-73
2021/09/07 12:38:32;;;;;;;3.30;2.53;;;17.90;69.90;;;;;;5005164;28;95903;-72
2021/09/07 12:41:07;;;;;;;4.40;2.25;;;17.90;69.90;;;;;;5003823;28;96003;-73
2021/09/07 12:43:42;;;;;;;2.17;1.88;;;17.90;69.70;;;;;;4986187;28;96106;-72
2021/09/07 12:46:17;;;;;;;4.38;2.33;;;17.90;69.80;;;;;;5018927;28;95929;-75
2021/09/07 12:48:50;;;;;;;3.20;2.28;;;17.90;69.80;;;;;;5021571;28;95822;-73
2021/09/07 12:51:23;;;;;;;4.45;2.78;;;17.90;69.60;;;;;;5023555;28;95743;-75
2021/09/07 12:53:58;;;;;;;2.92;2.03;;;17.90;69.70;;;;;;5022741;28;95779;-74
2021/09/07 12:56:35;;;;;;;3.08;2.45;;;17.90;69.60;;;;;;5025770;28;96577;-73
2021/09/07 12:59:08;;;;;;;2.28;2.08;;;17.90;69.50;;;;;;5000198;28;97732;-73
2021/09/07 13:01:39;;;;;;;4.40;2.38;;;17.90;69.50;;;;;;5018996;28;98086;-73
2021/09/07 13:04:10;;;;;;;4.32;2.80;;;17.90;69.40;;;;;;5029690;28;95601;-72
2021/09/07 13:06:41;;;;;;;3.15;2.33;;;17.90;69.40;;;;;;5028830;28;95878;-72
2021/09/07 13:09:12;;;;;;;2.70;2.00;;;17.90;69.40;;;;;;5009094;28;95803;-73
2021/09/07 13:11:43;;;;;;;;;;;17.90;69.30;;;;;;5029020;28;96894;-73
2021/09/07 13:14:13;;;;;;;4.35;2.85;;;17.90;69.40;;;;;;5027495;28;96918;-73
2021/09/07 13:16:45;;;;;;;3.40;2.22;;;17.90;69.30;;;;;;5016418;27;96469;-73
2021/09/07 13:19:16;;;;;;;3.15;2.15;;;17.90;69.30;;;;;;5018741;27;95933;-73
2021/09/07 13:21:58;;;;;;;4.93;2.90;;;17.90;69.20;;;;;;4995830;27;95967;-73